createdAt,value
2019-02-21T00:00:49.932Z,94.43
2019-02-21T00:01:49.923Z,93.60
2019-02-21T00:02:49.918Z,94.01
2019-02-21T00:03:49.897Z,94.16
2019-02-21T00:04:49.919Z,94.06
2019-02-21T00:05:49.881Z,93.85
2019-02-21T00:06:49.874Z,93.85
2019-02-21T00:07:49.858Z,94.26
2019-02-21T00:08:49.846Z,93.74
2019-02-21T00:09:49.840Z,94.37
2019-02-21T00:10:49.840Z,94.26
2019-02-21T00:11:49.901Z,94.26
2019-02-21T00:12:49.811Z,94.06
2019-02-21T00:13:49.807Z,94.26
2019-02-21T00:14:49.788Z,93.99
2019-02-21T00:15:49.848Z,94.20
2019-02-21T00:16:49.776Z,94.51
2019-02-21T00:17:49.756Z,94.06
2019-02-21T00:18:49.745Z,94.31
2019-02-21T00:19:49.730Z,94.31
2019-02-21T00:20:49.718Z,94.93
2019-02-21T00:21:49.709Z,94.93
2019-02-21T00:22:49.717Z,94.62
2019-02-21T00:23:49.698Z,94.62
2019-02-21T00:24:49.677Z,94.45
2019-02-21T00:25:49.670Z,94.31
2019-02-21T00:26:49.676Z,94.51
2019-02-21T00:27:49.642Z,94.41
2019-02-21T00:28:49.662Z,94.87
2019-02-21T00:29:49.632Z,94.20
2019-02-21T00:30:49.609Z,94.82
2019-02-21T00:31:49.619Z,94.41
2019-02-21T00:32:49.590Z,94.31
2019-02-21T00:33:49.593Z,94.14
2019-02-21T00:34:49.593Z,94.62
2019-02-21T00:35:49.568Z,94.56
2019-02-21T00:36:49.551Z,94.66
2019-02-21T00:37:49.539Z,95.60
2019-02-21T00:38:49.533Z,95.50
2019-02-21T00:39:49.517Z,95.60
2019-02-21T00:40:49.527Z,94.98
2019-02-21T00:41:49.489Z,96.01
2019-02-21T00:42:49.486Z,96.01
2019-02-21T00:43:49.489Z,96.01
2019-02-21T00:44:49.466Z,95.91
2019-02-21T00:45:49.454Z,95.81
2019-02-21T00:46:49.485Z,95.91
2019-02-21T00:47:49.428Z,95.70
2019-02-21T00:48:49.418Z,95.81
2019-02-21T00:49:49.418Z,95.91
2019-02-21T00:50:49.396Z,95.60
2019-02-21T00:51:49.384Z,96.06
2019-02-21T00:52:49.390Z,96.64
2019-02-21T00:53:49.364Z,96.48
2019-02-21T00:54:49.363Z,96.22
2019-02-21T00:55:49.336Z,96.53
2019-02-21T00:56:49.326Z,95.85
2019-02-21T00:57:49.325Z,96.16
2019-02-21T00:58:49.323Z,95.50
2019-02-21T00:59:50.902Z,95.81
2019-02-21T01:00:49.304Z,95.70
2019-02-21T01:01:49.278Z,95.75
2019-02-21T01:02:49.266Z,96.01
2019-02-21T01:03:49.252Z,95.81
2019-02-21T01:04:49.268Z,95.81
2019-02-21T01:05:49.234Z,95.50
2019-02-21T01:06:49.248Z,95.54
2019-02-21T01:07:49.214Z,95.23
2019-02-21T01:08:49.208Z,95.33
2019-02-21T01:09:49.192Z,95.23
2019-02-21T01:10:49.192Z,95.64
2019-02-21T01:11:49.173Z,95.75
2019-02-21T01:12:49.176Z,95.43
2019-02-21T01:13:49.151Z,95.54
2019-02-21T01:14:49.150Z,95.43
2019-02-21T01:15:49.150Z,95.43
2019-02-21T01:16:49.130Z,95.43
2019-02-21T01:17:49.109Z,95.85
2019-02-21T01:18:49.112Z,96.58
2019-02-21T01:19:49.083Z,96.26
2019-02-21T01:20:49.089Z,96.58
2019-02-21T01:21:49.059Z,96.06
2019-02-21T01:22:49.070Z,96.26
2019-02-21T01:23:49.040Z,96.16
2019-02-21T01:24:49.037Z,96.26
2019-02-21T01:25:49.027Z,96.16
2019-02-21T01:26:49.018Z,96.37
2019-02-21T01:27:48.995Z,96.69
2019-02-21T01:28:49.005Z,96.48
2019-02-21T01:29:48.986Z,97.31
2019-02-21T01:30:56.609Z,97.10
2019-02-21T01:31:49.954Z,97.41
2019-02-21T01:32:49.033Z,96.95
2019-02-21T01:33:48.939Z,96.69
2019-02-21T01:34:48.945Z,96.69
2019-02-21T01:35:48.915Z,96.37
2019-02-21T01:36:48.914Z,96.69
2019-02-21T01:37:48.901Z,96.58
2019-02-21T01:38:48.878Z,96.79
2019-02-21T01:39:48.869Z,96.58
2019-02-21T01:40:48.872Z,96.37
2019-02-21T01:41:48.846Z,96.69
2019-02-21T01:42:48.833Z,96.48
2019-02-21T01:43:48.835Z,96.06
2019-02-21T01:44:48.811Z,96.58
2019-02-21T01:45:48.808Z,96.48
2019-02-21T01:46:48.814Z,96.79
2019-02-21T01:47:48.782Z,96.69
2019-02-21T01:48:48.779Z,96.48
2019-02-21T01:49:48.766Z,96.62
2019-02-21T01:50:48.753Z,96.42
2019-02-21T01:51:48.744Z,96.73
2019-02-21T01:52:48.772Z,96.73
2019-02-21T01:53:48.721Z,96.73
2019-02-21T01:54:48.752Z,96.52
2019-02-21T01:55:48.709Z,97.77
2019-02-21T01:56:48.688Z,97.56
2019-02-21T01:57:48.682Z,97.56
2019-02-21T01:58:48.689Z,97.46
2019-02-21T01:59:48.669Z,97.35
2019-02-21T02:00:48.645Z,97.14
2019-02-21T02:01:48.647Z,96.52
2019-02-21T02:02:48.660Z,96.83
2019-02-21T02:03:48.616Z,96.36
2019-02-21T02:04:48.618Z,96.98
2019-02-21T02:05:48.608Z,96.77
2019-02-21T02:06:48.586Z,96.73
2019-02-21T02:07:48.571Z,96.94
2019-02-21T02:08:48.573Z,96.83
2019-02-21T02:09:48.570Z,96.52
2019-02-21T02:10:48.607Z,96.73
2019-02-21T02:11:48.531Z,96.62
2019-02-21T02:12:48.526Z,96.67
2019-02-21T02:13:48.514Z,96.46
2019-02-21T02:14:48.504Z,96.15
2019-02-21T02:15:48.499Z,96.52
2019-02-21T02:16:48.520Z,96.25
2019-02-21T02:17:48.470Z,96.77
2019-02-21T02:18:48.460Z,96.46
2019-02-21T02:19:48.451Z,96.77
2019-02-21T02:20:48.439Z,96.88
2019-02-21T02:21:48.430Z,96.98
2019-02-21T02:22:48.432Z,96.88
2019-02-21T02:23:48.422Z,96.98
2019-02-21T02:24:48.403Z,96.77
2019-02-21T02:25:48.391Z,96.88
2019-02-21T02:26:48.377Z,97.13
2019-02-21T02:27:48.365Z,97.40
2019-02-21T02:28:48.377Z,97.30
2019-02-21T02:29:48.355Z,97.55
2019-02-21T02:30:48.337Z,97.13
2019-02-21T02:31:48.323Z,97.65
2019-02-21T02:32:48.314Z,97.97
2019-02-21T02:33:48.302Z,97.97
2019-02-21T02:34:48.346Z,98.07
2019-02-21T02:35:48.281Z,97.55
2019-02-21T02:36:48.275Z,97.97
2019-02-21T02:37:48.265Z,98.07
2019-02-21T02:38:48.252Z,98.18
2019-02-21T02:39:48.239Z,97.65
2019-02-21T02:40:48.248Z,97.55
2019-02-21T02:41:48.224Z,97.55
2019-02-21T02:42:48.213Z,97.65
2019-02-21T02:43:48.194Z,97.65
2019-02-21T02:44:48.192Z,97.13
2019-02-21T02:45:48.178Z,97.75
2019-02-21T02:46:48.188Z,97.86
2019-02-21T02:47:48.155Z,97.34
2019-02-21T02:48:48.158Z,97.65
2019-02-21T02:49:48.144Z,97.44
2019-02-21T02:50:48.131Z,97.75
2019-02-21T02:51:48.127Z,97.75
2019-02-21T02:52:48.124Z,97.13
2019-02-21T02:53:48.097Z,97.65
2019-02-21T02:54:48.093Z,97.65
2019-02-21T02:55:48.103Z,96.92
2019-02-21T02:56:48.063Z,98.11
2019-02-21T02:57:48.062Z,97.28
2019-02-21T02:58:48.058Z,97.65
2019-02-21T02:59:48.033Z,97.97
2019-02-21T03:00:48.038Z,98.01
2019-02-21T03:01:48.011Z,97.38
2019-02-21T03:02:47.998Z,97.38
2019-02-21T03:03:48.008Z,98.22
2019-02-21T03:04:48.024Z,98.01
2019-02-21T03:05:47.969Z,97.70
2019-02-21T03:06:47.956Z,98.07
2019-02-21T03:07:47.950Z,97.44
2019-02-21T03:08:47.938Z,96.82
2019-02-21T03:09:47.928Z,97.97
2019-02-21T03:10:47.937Z,97.65
2019-02-21T03:11:51.527Z,97.70
2019-02-21T03:12:47.894Z,97.75
2019-02-21T03:13:47.889Z,97.70
2019-02-21T03:14:47.879Z,97.80
2019-02-21T03:15:47.865Z,97.91
2019-02-21T03:16:47.868Z,97.75
2019-02-21T03:17:47.863Z,96.86
2019-02-21T03:18:47.831Z,97.86
2019-02-21T03:19:47.831Z,97.07
2019-02-21T03:20:47.826Z,97.80
2019-02-21T03:21:47.801Z,97.80
2019-02-21T03:22:47.812Z,98.01
2019-02-21T03:23:47.782Z,97.59
2019-02-21T03:24:47.776Z,98.11
2019-02-21T03:25:47.782Z,98.01
2019-02-21T03:26:47.765Z,97.70
2019-02-21T03:27:47.739Z,97.59
2019-02-21T03:28:47.760Z,98.43
2019-02-21T03:29:47.712Z,98.07
2019-02-21T03:30:47.703Z,98.38
2019-02-21T03:31:54.819Z,97.97
2019-02-21T03:32:48.685Z,98.07
2019-02-21T03:33:47.669Z,98.43
2019-02-21T03:34:47.701Z,97.80
2019-02-21T03:35:47.653Z,97.65
2019-02-21T03:36:47.657Z,98.32
2019-02-21T03:37:47.630Z,97.49
2019-02-21T03:38:47.627Z,97.70
2019-02-21T03:39:47.604Z,97.59
2019-02-21T03:40:47.610Z,97.38
2019-02-21T03:41:47.597Z,97.59
2019-02-21T03:42:47.576Z,97.70
2019-02-21T03:43:47.573Z,97.38
2019-02-21T03:44:47.561Z,97.70
2019-02-21T03:45:47.557Z,97.91
2019-02-21T03:46:47.557Z,97.80
2019-02-21T03:47:47.527Z,97.70
2019-02-21T03:48:47.518Z,97.49
2019-02-21T03:49:47.507Z,97.70
2019-02-21T03:50:47.493Z,97.70
2019-02-21T03:51:47.489Z,97.70
2019-02-21T03:52:47.508Z,97.80
2019-02-21T03:53:47.460Z,97.59
2019-02-21T03:54:47.460Z,97.70
2019-02-21T03:55:47.441Z,97.49
2019-02-21T03:56:47.435Z,98.22
2019-02-21T03:57:47.418Z,97.38
2019-02-21T03:58:47.422Z,98.01
2019-02-21T03:59:47.395Z,97.91
2019-02-21T04:00:47.393Z,98.32
2019-02-21T04:01:47.396Z,97.70
2019-02-21T04:02:47.369Z,98.37
2019-02-21T04:03:47.368Z,97.95
2019-02-21T04:04:47.384Z,98.26
2019-02-21T04:05:47.336Z,98.16
2019-02-21T04:06:47.325Z,97.53
2019-02-21T04:07:47.313Z,97.43
2019-02-21T04:08:47.329Z,97.22
2019-02-21T04:09:47.309Z,97.32
2019-02-21T04:10:47.306Z,98.37
2019-02-21T04:11:47.281Z,98.16
2019-02-21T04:12:47.262Z,97.95
2019-02-21T04:13:47.252Z,97.95
2019-02-21T04:14:47.245Z,98.37
2019-02-21T04:15:47.259Z,98.05
2019-02-21T04:16:47.243Z,98.37
2019-02-21T04:17:47.275Z,98.16
2019-02-21T04:18:47.202Z,98.37
2019-02-21T04:19:47.191Z,98.26
2019-02-21T04:20:47.179Z,98.16
2019-02-21T04:21:47.173Z,97.43
2019-02-21T04:22:47.169Z,98.26
2019-02-21T04:23:47.146Z,97.43
2019-02-21T04:24:47.144Z,98.05
2019-02-21T04:25:47.121Z,97.74
2019-02-21T04:26:48.126Z,98.16
2019-02-21T04:27:47.115Z,97.95
2019-02-21T04:28:49.620Z,98.16
2019-02-21T04:29:47.626Z,97.64
2019-02-21T04:30:47.124Z,98.05
2019-02-21T04:31:47.066Z,98.26
2019-02-21T04:32:47.045Z,98.05
2019-02-21T04:33:47.041Z,98.16
2019-02-21T04:34:47.050Z,97.74
2019-02-21T04:35:47.020Z,97.64
2019-02-21T04:36:47.008Z,97.64
2019-02-21T04:37:46.995Z,97.64
2019-02-21T04:38:46.984Z,97.95
2019-02-21T04:39:46.976Z,97.74
2019-02-21T04:40:46.992Z,98.26
2019-02-21T04:41:46.952Z,98.05
2019-02-21T04:42:46.949Z,98.26
2019-02-21T04:43:46.966Z,97.95
2019-02-21T04:44:46.924Z,98.05
2019-02-21T04:45:46.911Z,98.05
2019-02-21T04:46:46.914Z,98.16
2019-02-21T04:47:46.892Z,98.05
2019-02-21T04:48:46.880Z,98.05
2019-02-21T04:49:46.873Z,98.05
2019-02-21T04:50:46.860Z,98.79
2019-02-21T04:51:46.849Z,98.58
2019-02-21T04:52:46.858Z,98.41
2019-02-21T04:53:46.850Z,98.10
2019-02-21T04:54:46.835Z,98.21
2019-02-21T04:55:46.872Z,98.31
2019-02-21T04:56:46.820Z,98.37
2019-02-21T04:57:46.809Z,97.95
2019-02-21T04:58:46.787Z,98.05
2019-02-21T04:59:46.766Z,97.53
2019-02-21T05:00:46.763Z,98.05
2019-02-21T05:01:46.745Z,98.05
2019-02-21T05:02:46.738Z,98.16
2019-02-21T05:03:46.722Z,98.37
2019-02-21T05:04:46.722Z,98.37
2019-02-21T05:05:46.699Z,98.21
2019-02-21T05:06:46.692Z,98.41
2019-02-21T05:07:46.684Z,97.99
2019-02-21T05:08:46.683Z,98.52
2019-02-21T05:09:57.443Z,98.79
2019-02-21T05:10:47.677Z,98.62
2019-02-21T05:11:53.671Z,98.21
2019-02-21T05:12:46.625Z,98.10
2019-02-21T05:13:46.612Z,98.52
2019-02-21T05:14:46.717Z,98.26
2019-02-21T05:15:46.602Z,98.47
2019-02-21T05:16:46.606Z,98.21
2019-02-21T05:17:46.573Z,98.37
2019-02-21T05:18:46.561Z,98.37
2019-02-21T05:19:46.552Z,97.68
2019-02-21T05:20:46.539Z,97.58
2019-02-21T05:21:46.524Z,97.58
2019-02-21T05:22:46.527Z,97.68
2019-02-21T05:23:46.507Z,98.10
2019-02-21T05:24:46.496Z,97.68
2019-02-21T05:25:46.487Z,98.31
2019-02-21T05:26:46.476Z,98.21
2019-02-21T05:27:46.467Z,98.21
2019-02-21T05:28:46.478Z,98.10
2019-02-21T05:29:46.444Z,97.58
2019-02-21T05:30:46.434Z,98.72
2019-02-21T05:31:46.428Z,97.89
2019-02-21T05:32:46.415Z,98.21
2019-02-21T05:33:46.403Z,98.10
2019-02-21T05:34:46.406Z,98.10
2019-02-21T05:35:46.380Z,98.16
2019-02-21T05:36:46.370Z,98.21
2019-02-21T05:37:46.357Z,98.21
2019-02-21T05:38:46.348Z,98.21
2019-02-21T05:39:46.339Z,97.99
2019-02-21T05:40:46.365Z,98.10
2019-02-21T05:41:46.319Z,97.68
2019-02-21T05:42:46.312Z,98.46
2019-02-21T05:43:46.296Z,98.46
2019-02-21T05:44:46.288Z,97.78
2019-02-21T05:45:46.983Z,98.31
2019-02-21T05:46:46.280Z,98.41
2019-02-21T05:47:46.255Z,98.04
2019-02-21T05:48:46.243Z,97.83
2019-02-21T05:49:46.233Z,98.10
2019-02-21T05:50:46.223Z,98.14
2019-02-21T05:51:46.209Z,98.04
2019-02-21T05:52:46.212Z,98.67
2019-02-21T05:53:46.195Z,98.25
2019-02-21T05:54:46.185Z,98.46
2019-02-21T05:55:46.167Z,98.46
2019-02-21T05:56:46.158Z,98.04
2019-02-21T05:57:46.155Z,98.50
2019-02-21T05:58:46.159Z,98.46
2019-02-21T05:59:46.128Z,98.61
2019-02-21T06:00:46.117Z,98.61
2019-02-21T06:01:46.107Z,99.08
2019-02-21T06:02:53.292Z,99.71
2019-02-21T06:03:47.098Z,99.71
2019-02-21T06:04:46.074Z,98.88
2019-02-21T06:05:46.066Z,99.08
2019-02-21T06:06:46.051Z,99.19
2019-02-21T06:07:46.050Z,99.08
2019-02-21T06:08:46.036Z,98.52
2019-02-21T06:09:46.037Z,98.83
2019-02-21T06:10:46.011Z,98.67
2019-02-21T06:11:46.001Z,98.52
2019-02-21T06:12:45.993Z,98.21
2019-02-21T06:13:45.975Z,98.46
2019-02-21T06:14:45.969Z,98.41
2019-02-21T06:15:45.977Z,98.41
2019-02-21T06:16:45.949Z,98.35
2019-02-21T06:17:45.950Z,98.46
2019-02-21T06:18:45.931Z,98.88
2019-02-21T06:19:48.048Z,98.83
2019-02-21T06:20:45.916Z,98.52
2019-02-21T06:21:45.911Z,98.88
2019-02-21T06:22:45.893Z,98.56
2019-02-21T06:23:45.881Z,98.67
2019-02-21T06:24:45.864Z,98.83
2019-02-21T06:25:51.410Z,98.35
2019-02-21T06:26:46.868Z,98.72
2019-02-21T06:27:45.834Z,98.21
2019-02-21T06:28:45.821Z,98.25
2019-02-21T06:29:45.811Z,98.35
2019-02-21T06:30:45.811Z,98.25
2019-02-21T06:31:45.790Z,98.10
2019-02-21T06:32:45.792Z,98.14
2019-02-21T06:33:45.772Z,97.94
2019-02-21T06:34:45.757Z,98.21
2019-02-21T06:35:45.756Z,97.99
2019-02-21T06:36:45.744Z,98.21
2019-02-21T06:37:45.728Z,98.31
2019-02-21T06:38:45.728Z,98.21
2019-02-21T06:39:45.705Z,98.10
2019-02-21T06:40:47.055Z,97.47
2019-02-21T06:41:45.685Z,97.78
2019-02-21T06:42:45.712Z,97.99
2019-02-21T06:43:45.668Z,97.64
2019-02-21T06:44:45.697Z,97.53
2019-02-21T06:45:45.651Z,97.85
2019-02-21T06:46:45.637Z,97.95
2019-02-21T06:47:45.622Z,96.70
2019-02-21T06:48:45.612Z,96.91
2019-02-21T06:49:45.604Z,96.80
2019-02-21T06:50:47.621Z,96.70
2019-02-21T06:51:45.580Z,96.38
2019-02-21T06:52:45.567Z,96.80
2019-02-21T06:53:45.555Z,96.34
2019-02-21T06:54:45.545Z,96.03
2019-02-21T06:55:45.535Z,95.72
2019-02-21T06:56:45.544Z,96.23
2019-02-21T06:57:45.520Z,95.19
2019-02-21T06:58:45.504Z,95.72
2019-02-21T06:59:45.566Z,95.72
2019-02-21T07:00:46.217Z,95.29
2019-02-21T07:01:45.470Z,94.78
2019-02-21T07:02:45.480Z,94.25
2019-02-21T07:03:45.447Z,94.84
2019-02-21T07:04:45.438Z,94.42
2019-02-21T07:05:45.428Z,94.42
2019-02-21T07:06:45.418Z,94.52
2019-02-21T07:07:45.406Z,94.02
2019-02-21T07:08:45.420Z,92.83
2019-02-21T07:09:45.389Z,91.08
2019-02-21T07:10:45.378Z,89.58
2019-02-21T07:11:46.053Z,87.98
2019-02-21T07:12:45.355Z,87.73
2019-02-21T07:13:45.342Z,85.82
2019-02-21T07:14:45.348Z,84.53
2019-02-21T07:15:45.324Z,83.50
2019-02-21T07:16:45.311Z,83.60
2019-02-21T07:17:49.208Z,82.73
2019-02-21T07:18:45.293Z,82.11
2019-02-21T07:19:45.278Z,81.24
2019-02-21T07:20:45.288Z,81.93
2019-02-21T07:21:45.263Z,80.75
2019-02-21T07:22:45.247Z,79.30
2019-02-21T07:23:45.237Z,79.44
2019-02-21T07:24:45.228Z,79.41
2019-02-21T07:25:45.236Z,79.37
2019-02-21T07:26:45.222Z,77.88
2019-02-21T07:27:45.199Z,77.33
2019-02-21T07:28:45.183Z,76.09
2019-02-21T07:29:45.173Z,75.57
2019-02-21T07:30:45.164Z,77.09
2019-02-21T07:31:45.152Z,75.74
2019-02-21T07:32:45.155Z,75.32
2019-02-21T07:33:45.128Z,75.50
2019-02-21T07:34:45.119Z,75.19
2019-02-21T07:35:45.111Z,73.02
2019-02-21T07:36:45.097Z,75.40
2019-02-21T07:37:45.087Z,75.57
2019-02-21T07:38:45.100Z,73.02
2019-02-21T07:39:45.064Z,72.40
2019-02-21T07:40:45.055Z,71.37
2019-02-21T07:41:45.044Z,71.54
2019-02-21T07:42:45.035Z,70.30
2019-02-21T07:43:45.026Z,70.61
2019-02-21T07:44:45.485Z,71.40
2019-02-21T07:45:45.005Z,73.12
2019-02-21T07:46:46.332Z,72.99
2019-02-21T07:47:44.978Z,70.27
2019-02-21T07:48:44.968Z,69.89
2019-02-21T07:49:44.955Z,71.92
2019-02-21T07:50:44.958Z,70.37
2019-02-21T07:51:44.934Z,70.99
2019-02-21T07:52:44.924Z,70.86
2019-02-21T07:53:44.911Z,72.47
2019-02-21T07:54:44.902Z,68.83
2019-02-21T07:55:44.892Z,68.76
2019-02-21T07:56:44.999Z,68.73
2019-02-21T07:57:44.876Z,67.77
2019-02-21T07:58:44.859Z,66.87
2019-02-21T07:59:44.845Z,68.21
2019-02-21T08:00:44.840Z,68.08
2019-02-21T08:01:44.836Z,67.05
2019-02-21T08:02:44.831Z,66.30
2019-02-21T08:03:48.094Z,66.46
2019-02-21T08:04:44.802Z,68.18
2019-02-21T08:05:44.780Z,66.50
2019-02-21T08:06:44.773Z,66.02
2019-02-21T08:07:44.764Z,66.77
2019-02-21T08:08:45.111Z,67.18
2019-02-21T08:09:44.741Z,66.64
2019-02-21T08:10:44.731Z,66.61
2019-02-21T08:11:44.716Z,65.47
2019-02-21T08:12:44.714Z,65.55
2019-02-21T08:13:44.696Z,64.93
2019-02-21T08:14:44.703Z,64.96
2019-02-21T08:15:44.677Z,67.52
2019-02-21T08:16:44.666Z,68.42
2019-02-21T08:17:44.653Z,67.87
2019-02-21T08:18:44.640Z,67.60
2019-02-21T08:19:44.638Z,67.53
2019-02-21T08:20:44.641Z,66.61
2019-02-21T08:21:44.666Z,67.63
2019-02-21T08:22:44.600Z,66.61
2019-02-21T08:23:50.449Z,66.61
2019-02-21T08:24:45.578Z,66.38
2019-02-21T08:25:44.569Z,64.36
2019-02-21T08:26:44.572Z,66.14
2019-02-21T08:27:44.544Z,63.51
2019-02-21T08:28:44.534Z,63.28
2019-02-21T08:29:44.524Z,61.61
2019-02-21T08:30:44.510Z,61.18
2019-02-21T08:31:44.500Z,60.66
2019-02-21T08:32:44.505Z,58.92
2019-02-21T08:33:47.078Z,59.81
2019-02-21T08:34:48.040Z,60.07
2019-02-21T08:35:44.454Z,63.29
2019-02-21T08:36:44.445Z,64.79
2019-02-21T08:37:44.432Z,66.37
2019-02-21T08:38:44.438Z,66.61
2019-02-21T08:39:44.413Z,67.06
2019-02-21T08:40:44.401Z,66.10
2019-02-21T08:41:44.391Z,65.38
2019-02-21T08:42:44.382Z,65.17
2019-02-21T08:43:44.369Z,64.84
2019-02-21T08:44:44.378Z,66.40
2019-02-21T08:45:44.346Z,69.20
2019-02-21T08:46:44.337Z,72.36
2019-02-21T08:47:44.327Z,74.05
2019-02-21T08:48:44.314Z,74.81
2019-02-21T08:49:44.301Z,75.91
2019-02-21T08:50:44.307Z,74.43
2019-02-21T08:51:44.281Z,73.57
2019-02-21T08:52:44.271Z,73.71
2019-02-21T08:53:44.264Z,74.74
2019-02-21T08:54:44.250Z,74.33
2019-02-21T08:55:44.238Z,73.77
2019-02-21T08:56:44.243Z,73.57
2019-02-21T08:57:44.214Z,73.54
2019-02-21T08:58:44.204Z,71.78
2019-02-21T08:59:44.236Z,68.70
2019-02-21T09:00:44.190Z,68.66
2019-02-21T09:01:44.169Z,69.79
2019-02-21T09:02:44.179Z,69.90
2019-02-21T09:03:44.150Z,70.00
2019-02-21T09:04:44.137Z,69.25
2019-02-21T09:05:44.130Z,68.60
2019-02-21T09:06:44.114Z,68.16
2019-02-21T09:07:46.186Z,67.68
2019-02-21T09:08:44.109Z,67.27
2019-02-21T09:09:44.084Z,66.76
2019-02-21T09:10:44.097Z,67.27
2019-02-21T09:11:44.062Z,66.35
2019-02-21T09:12:48.232Z,66.25
2019-02-21T09:13:44.041Z,67.55
2019-02-21T09:14:44.042Z,65.36
2019-02-21T09:15:46.474Z,64.64
2019-02-21T09:16:44.004Z,65.36
2019-02-21T09:17:43.997Z,64.59
2019-02-21T09:18:43.986Z,62.19
2019-02-21T09:19:43.972Z,61.07
2019-02-21T09:20:43.984Z,62.90
2019-02-21T09:21:43.952Z,63.18
2019-02-21T09:22:43.991Z,62.54
2019-02-21T09:23:43.930Z,62.40
2019-02-21T09:24:43.939Z,61.35
2019-02-21T09:25:43.907Z,61.52
2019-02-21T09:26:43.922Z,61.66
2019-02-21T09:27:43.909Z,60.76
2019-02-21T09:28:43.875Z,61.66
2019-02-21T09:29:43.862Z,60.63
2019-02-21T09:30:43.852Z,61.76
2019-02-21T09:31:43.841Z,61.04
2019-02-21T09:32:43.843Z,61.01
2019-02-21T09:33:43.981Z,60.37
2019-02-21T09:34:43.811Z,60.30
2019-02-21T09:35:43.797Z,59.86
2019-02-21T09:36:43.785Z,60.42
2019-02-21T09:37:43.779Z,61.63
2019-02-21T09:38:43.782Z,61.58
2019-02-21T09:39:43.758Z,63.35
2019-02-21T09:40:43.744Z,63.02
2019-02-21T09:41:43.730Z,63.20
2019-02-21T09:42:43.725Z,62.71
2019-02-21T09:43:43.708Z,63.56
2019-02-21T09:44:43.715Z,63.43
2019-02-21T09:45:43.685Z,63.40
2019-02-21T09:46:43.678Z,63.12
2019-02-21T09:47:43.666Z,63.29
2019-02-21T09:48:43.655Z,63.68
2019-02-21T09:49:43.643Z,62.78
2019-02-21T09:50:43.649Z,62.66
2019-02-21T09:51:43.622Z,60.83
2019-02-21T09:52:43.613Z,61.26
2019-02-21T09:53:43.602Z,61.65
2019-02-21T09:54:43.592Z,61.67
2019-02-21T09:55:43.583Z,61.60
2019-02-21T09:56:52.289Z,61.24
2019-02-21T09:57:44.555Z,59.75
2019-02-21T09:58:45.814Z,58.98
2019-02-21T09:59:43.534Z,58.11
2019-02-21T10:00:43.525Z,59.57
2019-02-21T10:01:43.511Z,59.88
2019-02-21T10:02:43.519Z,59.88
2019-02-21T10:03:44.324Z,58.87
2019-02-21T10:04:43.485Z,57.34
2019-02-21T10:05:43.471Z,57.62
2019-02-21T10:06:43.459Z,57.12
2019-02-21T10:07:43.451Z,56.73
2019-02-21T10:08:43.454Z,56.40
2019-02-21T10:09:43.426Z,56.35
2019-02-21T10:10:43.412Z,54.77
2019-02-21T10:11:43.403Z,54.28
2019-02-21T10:12:43.393Z,54.51
2019-02-21T10:13:43.386Z,54.49
2019-02-21T10:14:43.383Z,54.16
2019-02-21T10:15:43.358Z,54.41
2019-02-21T10:16:43.351Z,54.08
2019-02-21T10:17:43.343Z,54.00
2019-02-21T10:18:43.326Z,52.71
2019-02-21T10:19:43.316Z,54.39
2019-02-21T10:20:43.322Z,55.22
2019-02-21T10:21:43.293Z,54.82
2019-02-21T10:22:43.286Z,55.35
2019-02-21T10:23:43.277Z,56.12
2019-02-21T10:24:43.255Z,54.97
2019-02-21T10:25:43.259Z,54.11
2019-02-21T10:26:43.256Z,53.78
2019-02-21T10:27:43.226Z,52.96
2019-02-21T10:28:45.045Z,53.50
2019-02-21T10:29:43.207Z,53.45
2019-02-21T10:30:43.195Z,51.64
2019-02-21T10:31:43.185Z,52.56
2019-02-21T10:32:43.193Z,51.70
2019-02-21T10:33:46.900Z,51.62
2019-02-21T10:34:43.555Z,53.24
2019-02-21T10:35:43.141Z,51.18
2019-02-21T10:36:43.131Z,51.82
2019-02-21T10:37:43.124Z,53.93
2019-02-21T10:38:43.127Z,53.93
2019-02-21T10:39:43.102Z,53.63
2019-02-21T10:40:43.084Z,55.30
2019-02-21T10:41:43.074Z,55.07
2019-02-21T10:42:43.065Z,54.33
2019-02-21T10:43:43.059Z,54.33
2019-02-21T10:44:43.055Z,54.54
2019-02-21T10:45:47.789Z,54.11
2019-02-21T10:46:44.019Z,54.11
2019-02-21T10:47:43.010Z,54.44
2019-02-21T10:48:43.000Z,54.24
2019-02-21T10:49:42.984Z,54.26
2019-02-21T10:50:42.991Z,54.87
2019-02-21T10:51:42.965Z,55.38
2019-02-21T10:52:42.953Z,54.49
2019-02-21T10:53:42.950Z,52.84
2019-02-21T10:54:42.930Z,52.71
2019-02-21T10:55:42.920Z,52.08
2019-02-21T10:56:42.924Z,50.73
2019-02-21T10:57:45.373Z,51.67
2019-02-21T10:58:42.887Z,52.45
2019-02-21T10:59:46.735Z,53.24
2019-02-21T11:00:42.869Z,51.70
2019-02-21T11:01:42.854Z,51.06
2019-02-21T11:02:42.892Z,52.51
2019-02-21T11:03:42.832Z,51.72
2019-02-21T11:04:54.089Z,53.02
2019-02-21T11:05:43.810Z,51.59
2019-02-21T11:06:42.800Z,50.98
2019-02-21T11:07:42.792Z,51.90
2019-02-21T11:08:42.790Z,51.46
2019-02-21T11:09:42.767Z,51.59
2019-02-21T11:10:42.755Z,51.79
2019-02-21T11:11:42.745Z,51.24
2019-02-21T11:12:42.732Z,51.21
2019-02-21T11:13:42.723Z,52.23
2019-02-21T11:14:47.500Z,51.49
2019-02-21T11:15:43.702Z,51.77
2019-02-21T11:16:42.688Z,51.14
2019-02-21T11:17:42.679Z,50.00
2019-02-21T11:18:42.668Z,49.37
2019-02-21T11:19:42.656Z,48.13
2019-02-21T11:20:42.662Z,49.80
2019-02-21T11:21:42.634Z,49.69
2019-02-21T11:22:42.628Z,49.80
2019-02-21T11:23:42.611Z,49.59
2019-02-21T11:24:42.610Z,49.16
2019-02-21T11:25:42.589Z,48.74
2019-02-21T11:26:42.595Z,48.96
2019-02-21T11:27:42.566Z,49.47
2019-02-21T11:28:42.556Z,48.23
2019-02-21T11:29:42.549Z,48.03
2019-02-21T11:30:42.534Z,47.67
2019-02-21T11:31:42.525Z,46.77
2019-02-21T11:32:42.534Z,46.87
2019-02-21T11:33:42.502Z,46.97
2019-02-21T11:34:42.501Z,46.69
2019-02-21T11:35:42.480Z,48.38
2019-02-21T11:36:42.470Z,48.35
2019-02-21T11:37:46.313Z,48.43
2019-02-21T11:38:42.464Z,47.88
2019-02-21T11:39:42.435Z,46.62
2019-02-21T11:40:42.426Z,45.20
2019-02-21T11:41:42.419Z,45.51
2019-02-21T11:42:42.408Z,45.41
2019-02-21T11:43:42.394Z,45.51
2019-02-21T11:44:42.398Z,45.29
2019-02-21T11:45:53.228Z,44.88
2019-02-21T11:46:43.364Z,45.61
2019-02-21T11:47:42.351Z,46.04
2019-02-21T11:48:42.339Z,45.55
2019-02-21T11:49:42.330Z,45.83
2019-02-21T11:50:42.348Z,44.80
2019-02-21T11:51:42.307Z,43.89
2019-02-21T11:52:42.296Z,43.97
2019-02-21T11:53:42.283Z,45.03
2019-02-21T11:54:42.272Z,45.23
2019-02-21T11:55:42.264Z,45.78
2019-02-21T11:56:42.266Z,45.57
2019-02-21T11:57:42.241Z,45.17
2019-02-21T11:58:42.228Z,45.04
2019-02-21T11:59:42.218Z,45.33
2019-02-21T12:00:42.205Z,44.90
2019-02-21T12:01:42.201Z,44.07
2019-02-21T12:02:42.213Z,43.57
2019-02-21T12:03:42.177Z,43.87
2019-02-21T12:04:42.164Z,44.20
2019-02-21T12:05:42.151Z,43.83
2019-02-21T12:06:42.147Z,43.71
2019-02-21T12:07:42.129Z,43.16
2019-02-21T12:08:42.132Z,43.37
2019-02-21T12:09:42.106Z,43.04
2019-02-21T12:10:42.097Z,41.69
2019-02-21T12:11:42.084Z,41.22
2019-02-21T12:12:42.078Z,41.71
2019-02-21T12:13:42.068Z,39.99
2019-02-21T12:14:42.072Z,39.65
2019-02-21T12:15:42.051Z,39.06
2019-02-21T12:16:42.034Z,40.17
2019-02-21T12:17:42.946Z,37.97
2019-02-21T12:18:42.010Z,38.57
2019-02-21T12:19:41.998Z,37.57
2019-02-21T12:20:42.001Z,38.31
2019-02-21T12:21:41.976Z,38.80
2019-02-21T12:22:41.966Z,39.20
2019-02-21T12:23:41.953Z,37.99
2019-02-21T12:24:41.945Z,36.79
2019-02-21T12:25:41.935Z,37.92
2019-02-21T12:26:41.934Z,38.33
2019-02-21T12:27:41.917Z,37.52
2019-02-21T12:28:41.944Z,37.72
2019-02-21T12:29:41.888Z,37.90
2019-02-21T12:30:41.876Z,37.82
2019-02-21T12:31:41.866Z,39.24
2019-02-21T12:32:41.872Z,37.48
2019-02-21T12:33:41.844Z,37.68
2019-02-21T12:34:41.834Z,37.35
2019-02-21T12:35:41.821Z,36.62
2019-02-21T12:36:41.812Z,37.59
2019-02-21T12:37:41.813Z,37.89
2019-02-21T12:38:41.836Z,38.82
2019-02-21T12:39:41.785Z,38.09
2019-02-21T12:40:41.767Z,38.11
2019-02-21T12:41:41.758Z,37.48
2019-02-21T12:42:41.744Z,37.59
2019-02-21T12:43:41.736Z,36.98
2019-02-21T12:44:41.738Z,36.59
2019-02-21T12:45:41.712Z,36.29
2019-02-21T12:46:41.699Z,37.15
2019-02-21T12:47:49.362Z,37.34
2019-02-21T12:48:42.682Z,37.23
2019-02-21T12:49:41.669Z,36.79
2019-02-21T12:50:44.501Z,36.90
2019-02-21T12:51:41.646Z,36.69
2019-02-21T12:52:41.637Z,36.49